| time (UTC) | temp F | wind direction | speed MPH | gust MPH | rain 1hr in | rain 24hr in | rain mn in | humidity % | barometer mb |
| 20260507075201 | 44 | 322 | 5.0 | 6.0 | 0.00 | 0.00 | 0.00 | 84 | 1010.9 |
| 20260507073401 | 42 | 333 | 4.0 | 6.0 | 0.00 | 0.00 | 0.00 | 84 | 1010.8 |
| 20260507072503 | 42 | 13 | 5.0 | 7.0 | 0.00 | 0.00 | 0.00 | 84 | 1010.7 |
| 20260507070702 | 41 | 325 | 5.0 | 9.0 | 0.00 | 0.00 | 0.00 | 84 | 1010.7 |
| 20260507065801 | 40 | 240 | 4.0 | 9.0 | 0.00 | 0.00 | 0.00 | 84 | 1010.6 |
| 20260507064901 | 40 | 228 | 3.0 | 6.0 | 0.00 | 0.00 | 0.00 | 84 | 1010.6 |
| 20260507063101 | 39 | 332 | 6.0 | 8.0 | 0.00 | 0.00 | 0.00 | 84 | 1010.5 |
| 20260507062201 | 38 | 326 | 5.0 | 7.0 | 0.00 | 0.00 | 0.00 | 84 | 1010.4 |
| 20260507060401 | 37 | 336 | 8.0 | 10.0 | 0.00 | 0.00 | 0.00 | 84 | 1010.3 |
| 20260507055503 | 37 | 342 | 8.0 | 11.0 | 0.00 | 0.00 | 0.00 | 84 | 1010.2 |
| 20260507054601 | 37 | 340 | 8.0 | 11.0 | 0.00 | 0.00 | 0.00 | 84 | 1010.2 |
| 20260507053701 | 37 | 350 | 8.0 | 11.0 | 0.00 | 0.00 | 0.00 | 84 | 1010.1 |
| 20260507052801 | 36 | 345 | 5.0 | 7.0 | 0.00 | 0.00 | 0.00 | 84 | 1009.9 |
| 20260507051901 | 35 | 350 | 4.0 | 6.0 | 0.00 | 0.00 | 0.00 | 84 | 1010.0 |
| 20260507051001 | 34 | 251 | 3.0 | 6.0 | 0.00 | 0.00 | 0.00 | 84 | 1009.9 |
| 20260507045201 | 33 | 238 | 3.0 | 6.0 | 0.00 | 0.00 | 0.00 | 84 | 1009.9 |
| 20260507044302 | 33 | 294 | 3.0 | 5.0 | 0.00 | 0.00 | 0.00 | 84 | 1009.9 |
| 20260507043401 | 33 | 356 | 3.0 | 4.0 | 0.00 | 0.00 | 0.00 | 84 | 1009.8 |
| 20260507042501 | 32 | 338 | 2.0 | 4.0 | 0.00 | 0.00 | 0.00 | 84 | 1009.9 |
| 20260507041601 | 32 | 188 | 2.0 | 3.0 | 0.00 | 0.00 | 0.00 | 84 | 1009.7 |
| 20260507040702 | 32 | 225 | 2.0 | 3.0 | 0.00 | 0.00 | 0.00 | 84 | 1009.8 |
| 20260507035801 | 31 | 208 | 2.0 | 3.0 | 0.00 | 0.00 | 0.00 | 84 | 1009.6 |
| 20260507034901 | 31 | 161 | 2.0 | 4.0 | 0.00 | 0.00 | 0.00 | 84 | 1009.4 |
| 20260507033101 | 32 | 179 | 3.0 | 6.0 | 0.00 | 0.00 | 0.00 | 84 | 1009.2 |
| 20260507032201 | 32 | 201 | 3.0 | 5.0 | 0.00 | 0.00 | 0.00 | 84 | 1009.4 |
| 20260507024601 | 32 | 185 | 2.0 | 5.0 | 0.00 | 0.00 | 0.00 | 84 | 1009.2 |
| 20260507023702 | 33 | 334 | 2.0 | 4.0 | 0.00 | 0.00 | 0.00 | 84 | 1009.1 |
| 20260507022801 | 33 | 200 | 2.0 | 3.0 | 0.00 | 0.00 | 0.00 | 84 | 1009.0 |
| 20260507021903 | 33 | 238 | 2.0 | 3.0 | 0.00 | 0.00 | 0.00 | 84 | 1009.1 |
| 20260507021001 | 33 | 218 | 2.0 | 3.0 | 0.00 | 0.00 | 0.00 | 84 | 1009.0 |
| 20260507015201 | 34 | 254 | 2.0 | 4.0 | 0.00 | 0.00 | 0.00 | 84 | 1009.0 |
| 20260507014303 | 34 | 239 | 2.0 | 2.0 | 0.00 | 0.00 | 0.00 | 84 | 1008.9 |
| 20260507013401 | 35 | 192 | 2.0 | 5.0 | 0.00 | 0.00 | 0.00 | 84 | 1009.2 |
| 20260507012501 | 35 | 330 | 4.0 | 7.0 | 0.00 | 0.00 | 0.00 | 84 | 1008.9 |
| 20260507011601 | 34 | 327 | 5.0 | 9.0 | 0.00 | 0.00 | 0.00 | 84 | 1008.9 |
| 20260507010701 | 34 | 151 | 2.0 | 2.0 | 0.00 | 0.00 | 0.00 | 84 | 1008.7 |
| 20260507005801 | 34 | 158 | 3.0 | 4.0 | 0.00 | 0.00 | 0.00 | 84 | 1008.8 |
| 20260507004903 | 33 | 166 | 2.0 | 4.0 | 0.00 | 0.00 | 0.00 | 84 | 1008.6 |
| 20260507004001 | 34 | 158 | 2.0 | 4.0 | 0.00 | 0.00 | 0.00 | 84 | 1008.6 |
| 20260507003101 | 34 | 58 | 3.0 | 5.0 | 0.00 | 0.00 | 0.00 | 84 | 1008.5 |
| 20260507002201 | 35 | 353 | 5.0 | 11.0 | 0.00 | 0.00 | 0.00 | 84 | 1008.5 |
| 20260507001301 | 35 | 334 | 4.0 | 8.0 | 0.00 | 0.00 | 0.00 | 84 | 1008.5 |
| 20260507000401 | 36 | 341 | 5.0 | 6.0 | 0.00 | 0.00 | 0.00 | 84 | 1008.6 |
| 20260506235501 | 36 | 341 | 5.0 | 7.0 | 0.00 | 0.00 | 0.00 | 84 | 1008.4 |
| 20260506234601 | 36 | 332 | 5.0 | 7.0 | 0.00 | 0.00 | 0.00 | 84 | 1008.5 |
| 20260506232801 | 36 | 308 | 4.0 | 6.0 | 0.00 | 0.00 | 0.00 | 84 | 1008.3 |
| 20260506231902 | 36 | 317 | 5.0 | 7.0 | 0.00 | 0.00 | 0.00 | 84 | 1008.4 |
| 20260506231001 | 36 | 343 | 5.0 | 7.0 | 0.00 | 0.00 | 0.00 | 84 | 1008.3 |
| 20260506225201 | 37 | 334 | 7.0 | 8.0 | 0.00 | 0.00 | 0.00 | 84 | 1008.1 |
| 20260506224301 | 37 | 341 | 6.0 | 8.0 | 0.00 | 0.00 | 0.00 | 84 | 1008.3 |
| 20260506223401 | 38 | 311 | 8.0 | 11.0 | 0.00 | 0.00 | 0.00 | 84 | 1008.1 |
| 20260506222501 | 38 | 353 | 8.0 | 11.0 | 0.00 | 0.00 | 0.00 | 84 | 1008.2 |
| 20260506221601 | 38 | 1 | 9.0 | 15.0 | 0.00 | 0.00 | 0.00 | 84 | 1008.1 |
| 20260506220701 | 38 | 359 | 8.0 | 9.0 | 0.00 | 0.00 | 0.00 | 84 | 1007.9 |
| 20260506215801 | 38 | 329 | 5.0 | 9.0 | 0.00 | 0.00 | 0.00 | 84 | 1007.9 |
| 20260506214903 | 38 | 348 | 4.0 | 7.0 | 0.00 | 0.00 | 0.00 | 84 | 1008.0 |
| 20260506214001 | 38 | 328 | 5.0 | 10.0 | 0.00 | 0.00 | 0.00 | 84 | 1008.1 |
| 20260506212201 | 39 | 338 | 8.0 | 11.0 | 0.00 | 0.00 | 0.00 | 84 | 1007.9 |
| 20260506211301 | 39 | 330 | 7.0 | 13.0 | 0.00 | 0.00 | 0.00 | 84 | 1007.8 |
| 20260506210401 | 39 | 309 | 6.0 | 11.0 | 0.00 | 0.00 | 0.00 | 84 | 1007.7 |
| 20260506204601 | 40 | 335 | 3.0 | 4.0 | 0.00 | 0.00 | 0.00 | 84 | 1007.6 |
| 20260506203701 | 40 | 337 | 3.0 | 4.0 | 0.00 | 0.00 | 0.00 | 84 | 1007.4 |
| 20260506202802 | 41 | 344 | 4.0 | 8.0 | 0.00 | 0.00 | 0.00 | 84 | 1007.5 |
| 20260506201901 | 41 | 320 | 6.0 | 10.0 | 0.00 | 0.00 | 0.00 | 84 | 1007.5 |
| 20260506201002 | 41 | 357 | 4.0 | 10.0 | 0.00 | 0.00 | 0.00 | 84 | 1007.5 |
| 20260506200101 | 42 | 290 | 3.0 | 5.0 | 0.00 | 0.00 | 0.00 | 84 | 1007.5 |
| 20260506195201 | 42 | 332 | 4.0 | 5.0 | 0.00 | 0.00 | 0.00 | 84 | 1007.3 |
| 20260506194301 | 43 | 336 | 6.0 | 8.0 | 0.00 | 0.00 | 0.00 | 84 | 1007.3 |
| 20260506193401 | 43 | 327 | 7.0 | 12.0 | 0.00 | 0.00 | 0.00 | 84 | 1007.2 |
| 20260506191603 | 45 | 273 | 5.0 | 7.0 | 0.00 | 0.00 | 0.00 | 84 | 1007.2 |
| 20260506190701 | 46 | 314 | 4.0 | 6.0 | 0.00 | 0.00 | 0.00 | 84 | 1007.0 |
| 20260506185803 | 46 | 325 | 4.0 | 7.0 | 0.00 | 0.00 | 0.00 | 84 | 1007.0 |
| 20260506184901 | 47 | 320 | 7.0 | 10.0 | 0.00 | 0.00 | 0.00 | 84 | 1006.8 |
| 20260506183101 | 49 | 295 | 3.0 | 4.0 | 0.00 | 0.00 | 0.00 | 84 | 1006.6 |
| 20260506182201 | 49 | 309 | 4.0 | 11.0 | 0.00 | 0.00 | 0.00 | 84 | 1006.5 |
| 20260506181301 | 50 | 311 | 6.0 | 11.0 | 0.00 | 0.00 | 0.00 | 84 | 1006.6 |
| 20260506180401 | 51 | 280 | 3.0 | 9.0 | 0.00 | 0.00 | 0.00 | 84 | 1006.5 |
| 20260506174601 | 53 | 267 | 5.0 | 9.0 | 0.00 | 0.00 | 0.00 | 84 | 1006.3 |
| 20260506173701 | 54 | 266 | 3.0 | 5.0 | 0.00 | 0.00 | 0.00 | 84 | 1006.3 |
| 20260506172802 | 54 | 228 | 5.0 | 7.0 | 0.00 | 0.00 | 0.00 | 84 | 1006.0 |
| 20260506171901 | 54 | 237 | 4.0 | 6.0 | 0.00 | 0.00 | 0.00 | 84 | 1006.1 |
| 20260506165201 | 55 | 239 | 5.0 | 7.0 | 0.00 | 0.00 | 0.00 | 84 | 1006.0 |
| 20260506164301 | 56 | 228 | 4.0 | 7.0 | 0.00 | 0.00 | 0.00 | 84 | 1006.1 |
| 20260506163401 | 55 | 265 | 3.0 | 5.0 | 0.00 | 0.00 | 0.00 | 84 | 1005.8 |
| 20260506162502 | 55 | 240 | 5.0 | 8.0 | 0.00 | 0.00 | 0.00 | 84 | 1005.9 |
| 20260506161601 | 54 | 231 | 5.0 | 6.0 | 0.00 | 0.00 | 0.00 | 84 | 1005.8 |
| 20260506160701 | 54 | 175 | 2.0 | 4.0 | 0.00 | 0.00 | 0.00 | 84 | 1005.7 |
| 20260506155801 | 55 | 236 | 6.0 | 8.0 | 0.00 | 0.00 | 0.00 | 84 | 1005.6 |
| 20260506154901 | 55 | 222 | 7.0 | 8.0 | 0.00 | 0.00 | 0.00 | 84 | 1005.8 |
| 20260506154001 | 55 | 215 | 4.0 | 7.0 | 0.00 | 0.00 | 0.00 | 84 | 1005.7 |
| 20260506153101 | 55 | 300 | 4.0 | 7.0 | 0.00 | 0.00 | 0.00 | 84 | 1005.5 |
| 20260506151301 | 55 | 202 | 4.0 | 5.0 | 0.00 | 0.00 | 0.00 | 84 | 1005.9 |
| 20260506150401 | 54 | 210 | 5.0 | 8.0 | 0.00 | 0.00 | 0.00 | 84 | 1005.9 |
| 20260506145501 | 54 | 270 | 7.0 | 9.0 | 0.00 | 0.00 | 0.00 | 84 | 1005.6 |
| 20260506143703 | 55 | 295 | 6.0 | 10.0 | 0.00 | 0.00 | 0.00 | 84 | 1005.7 |
| 20260506142801 | 57 | 293 | 6.0 | 8.0 | 0.00 | 0.00 | 0.00 | 84 | 1005.7 |
| 20260506141901 | 57 | 256 | 3.0 | 7.0 | 0.00 | 0.00 | 0.00 | 84 | 1005.7 |
| 20260506141001 | 58 | 240 | 7.0 | 8.0 | 0.00 | 0.00 | 0.00 | 84 | 1005.7 |
| 20260506135201 | 57 | 230 | 5.0 | 8.0 | 0.00 | 0.00 | 0.00 | 84 | 1006.2 |
| 20260506134301 | 56 | 253 | 5.0 | 8.0 | 0.00 | 0.00 | 0.00 | 84 | 1006.0 |
| 20260506132501 | 57 | 246 | 7.0 | 11.0 | 0.00 | 0.00 | 0.00 | 84 | 1005.8 |
| 20260506131603 | 57 | 251 | 7.0 | 11.0 | 0.00 | 0.00 | 0.00 | 84 | 1005.9 |
| 20260506130701 | 57 | 215 | 4.0 | 10.0 | 0.00 | 0.00 | 0.00 | 84 | 1006.0 |
| 20260506125802 | 56 | 281 | 6.0 | 8.0 | 0.00 | 0.00 | 0.00 | 84 | 1006.0 |
| 20260506124901 | 56 | 257 | 4.0 | 8.0 | 0.00 | 0.00 | 0.00 | 84 | 1006.2 |
| 20260506124001 | 55 | 279 | 5.0 | 6.0 | 0.00 | 0.00 | 0.00 | 84 | 1006.1 |
| 20260506122202 | 55 | 217 | 4.0 | 8.0 | 0.00 | 0.00 | 0.00 | 84 | 1006.1 |
| 20260506121301 | 54 | 241 | 5.0 | 10.0 | 0.00 | 0.00 | 0.00 | 84 | 1006.4 |
| 20260506120401 | 52 | 274 | 3.0 | 6.0 | 0.00 | 0.00 | 0.00 | 84 | 1006.4 |
| 20260506115501 | 52 | 350 | 6.0 | 11.0 | 0.00 | 0.00 | 0.00 | 84 | 1006.3 |
| 20260506114601 | 53 | 310 | 4.0 | 6.0 | 0.00 | 0.00 | 0.00 | 84 | 1006.4 |
| 20260506112802 | 51 | 343 | 5.0 | 8.0 | 0.00 | 0.00 | 0.00 | 84 | 1006.5 |
| 20260506111901 | 51 | 307 | 4.0 | 8.0 | 0.00 | 0.00 | 0.00 | 84 | 1006.5 |
| 20260506111001 | 51 | 310 | 4.0 | 8.0 | 0.00 | 0.00 | 0.00 | 84 | 1006.4 |
| 20260506110101 | 51 | 254 | 4.0 | 7.0 | 0.00 | 0.00 | 0.00 | 84 | 1006.5 |
| 20260506105202 | 49 | 335 | 5.0 | 10.0 | 0.00 | 0.00 | 0.00 | 84 | 1006.5 |
| 20260506104301 | 49 | 318 | 6.0 | 8.0 | 0.00 | 0.00 | 0.00 | 84 | 1006.7 |
| 20260506103401 | 49 | 347 | 6.0 | 8.0 | 0.00 | 0.00 | 0.00 | 84 | 1006.5 |
| 20260506102501 | 50 | 336 | 4.0 | 6.0 | 0.00 | 0.00 | 0.00 | 84 | 1006.8 |
| 20260506101602 | 49 | 355 | 4.0 | 9.0 | 0.00 | 0.00 | 0.00 | 84 | 1006.6 |
| 20260506100701 | 49 | 168 | 3.0 | 6.0 | 0.00 | 0.00 | 0.00 | 84 | 1006.8 |
| 20260506095801 | 48 | 316 | 3.0 | 7.0 | 0.00 | 0.00 | 0.00 | 84 | 1006.9 |
| 20260506094901 | 48 | 319 | 4.0 | 8.0 | 0.00 | 0.00 | 0.00 | 84 | 1006.8 |
| 20260506094001 | 48 | 306 | 4.0 | 5.0 | 0.00 | 0.00 | 0.00 | 84 | 1006.8 |
| 20260506093101 | 47 | 334 | 4.0 | 9.0 | 0.00 | 0.00 | 0.00 | 84 | 1006.9 |
| 20260506092201 | 47 | 344 | 4.0 | 8.0 | 0.00 | 0.00 | 0.00 | 84 | 1006.9 |
| 20260506091301 | 47 | 267 | 4.0 | 5.0 | 0.00 | 0.00 | 0.00 | 84 | 1006.9 |
| 20260506090401 | 46 | 1 | 4.0 | 6.0 | 0.00 | 0.00 | 0.00 | 84 | 1007.1 |
| 20260506085501 | 47 | 324 | 3.0 | 6.0 | 0.00 | 0.00 | 0.00 | 84 | 1007.1 |
| 20260506084601 | 46 | 265 | 2.0 | 3.0 | 0.00 | 0.00 | 0.00 | 84 | 1007.1 |
| 20260506083701 | 44 | 338 | 4.0 | 7.0 | 0.00 | 0.00 | 0.00 | 84 | 1007.1 |
| 20260506082801 | 44 | 162 | 3.0 | 4.0 | 0.00 | 0.00 | 0.00 | 84 | 1007.0 |
| 20260506081901 | 44 | 336 | 3.0 | 5.0 | 0.00 | 0.00 | 0.00 | 84 | 1007.0 |
| 20260506081001 | 43 | 256 | 3.0 | 7.0 | 0.00 | 0.00 | 0.00 | 84 | 1007.0 |